Time;durP1;ratioP1;P1;durP2;ratioP2;P2;SDS_P1;SDS_P2;PMS_P1;PMS_P2;Temp;Humidity;BMP_temperature;BMP_pressure;BME280_temperature;BME280_humidity;BME280_pressure;Samples;Min_cycle;Max_cycle;Signal;HPM_P1;HPM_P2
2020/12/22 00:00:39;;;;;;;6.38;5.35;;;11.70;94.60;;;;;;2056898;28;20453;-82
2020/12/22 00:01:39;;;;;;;5.95;5.30;;;11.70;94.60;;;;;;2043330;28;20094;-81
2020/12/22 00:02:44;;;;;;;6.00;4.90;;;11.70;94.60;;;;;;2042936;29;20864;-81
2020/12/22 00:03:45;;;;;;;6.60;5.03;;;11.70;94.50;;;;;;2056667;28;20123;-81
2020/12/22 00:04:45;;;;;;;5.63;4.93;;;11.80;94.60;;;;;;2057203;28;20425;-82
2020/12/22 00:05:48;;;;;;;5.80;4.88;;;11.80;94.60;;;;;;2056212;28;20031;-82
2020/12/22 00:06:49;;;;;;;6.28;5.38;;;11.80;94.60;;;;;;2057628;28;20034;-82
2020/12/22 00:07:49;;;;;;;6.90;5.90;;;11.80;94.60;;;;;;2057263;28;20366;-81
2020/12/22 00:08:51;;;;;;;6.35;5.45;;;11.80;94.60;;;;;;2057621;28;20134;-82
2020/12/22 00:09:52;;;;;;;6.07;5.38;;;11.80;94.60;;;;;;2053418;28;20375;-82
2020/12/22 00:10:52;;;;;;;6.63;5.65;;;11.80;94.60;;;;;;2056724;28;20115;-83
2020/12/22 00:11:53;;;;;;;5.90;4.97;;;11.80;94.90;;;;;;2039882;29;20513;-82
2020/12/22 00:12:54;;;;;;;6.30;5.35;;;11.90;94.60;;;;;;2034085;29;20032;-82
2020/12/22 00:13:55;;;;;;;6.28;5.57;;;11.90;94.60;;;;;;2042578;29;20031;-82
2020/12/22 00:14:55;;;;;;;7.57;6.07;;;11.90;94.60;;;;;;2041686;29;20090;-82
2020/12/22 00:15:56;;;;;;;7.10;6.07;;;11.90;94.60;;;;;;2041746;29;20462;-82
2020/12/22 00:16:56;;;;;;;7.10;6.05;;;11.90;94.60;;;;;;2053346;28;20038;-82
2020/12/22 00:17:57;;;;;;;6.97;6.07;;;12.00;94.70;;;;;;2049193;28;20066;-82
2020/12/22 00:18:58;;;;;;;6.90;5.90;;;12.00;94.60;;;;;;2041737;29;20430;-82
2020/12/22 00:19:58;;;;;;;7.07;6.10;;;12.00;94.60;;;;;;2048726;28;20031;-82
2020/12/22 00:20:59;;;;;;;6.70;5.70;;;12.00;94.60;;;;;;2041177;29;20031;-83
2020/12/22 00:22:00;;;;;;;7.47;6.28;;;12.00;94.60;;;;;;2043448;28;20110;-82
2020/12/22 00:23:01;;;;;;;6.55;5.85;;;12.00;94.60;;;;;;2049249;28;20070;-83
2020/12/22 00:24:02;;;;;;;6.93;6.05;;;12.10;94.60;;;;;;2049697;28;20101;-82
2020/12/22 00:25:04;;;;;;;7.07;6.38;;;12.10;94.60;;;;;;2041210;29;20028;-83
2020/12/22 00:26:04;;;;;;;7.68;6.72;;;12.10;94.60;;;;;;2033877;29;20115;-82
2020/12/22 00:27:05;;;;;;;6.93;6.22;;;12.10;94.70;;;;;;2054748;28;20126;-82
2020/12/22 00:28:05;;;;;;;7.72;6.80;;;12.10;94.70;;;;;;2057713;28;20030;-82
2020/12/22 00:29:06;;;;;;;6.95;6.13;;;12.20;94.70;;;;;;2057579;28;20027;-82
2020/12/22 00:30:07;;;;;;;7.72;6.20;;;12.20;94.70;;;;;;2049083;28;20027;-82
2020/12/22 00:31:07;;;;;;;6.85;6.13;;;12.20;94.60;;;;;;2048641;28;20039;-82
2020/12/22 00:32:08;;;;;;;6.55;5.85;;;12.20;94.60;;;;;;2049573;28;20054;-82
2020/12/22 00:33:09;;;;;;;5.90;5.30;;;12.20;94.60;;;;;;2041118;29;20087;-82
2020/12/22 00:34:10;;;;;;;6.22;5.35;;;12.20;94.60;;;;;;2041516;28;20107;-82
2020/12/22 00:35:10;;;;;;;7.05;5.82;;;12.20;94.60;;;;;;2047937;29;20140;-82
2020/12/22 00:36:11;;;;;;;6.70;6.00;;;12.20;94.60;;;;;;2040955;29;20035;-82
2020/12/22 00:37:12;;;;;;;7.82;6.95;;;12.20;94.60;;;;;;2041568;29;20087;-82
2020/12/22 00:38:12;;;;;;;7.25;6.30;;;12.20;94.60;;;;;;2026081;29;20507;-82
2020/12/22 00:39:13;;;;;;;7.00;5.82;;;12.30;94.70;;;;;;2049053;28;20067;-82
2020/12/22 00:40:13;;;;;;;7.13;5.53;;;12.30;94.70;;;;;;2049441;29;20027;-82
2020/12/22 00:41:15;;;;;;;6.22;5.50;;;12.30;94.70;;;;;;2049140;29;20040;-82
2020/12/22 00:42:15;;;;;;;6.55;5.82;;;12.30;94.70;;;;;;2057445;28;20081;-82
2020/12/22 00:43:16;;;;;;;6.57;5.82;;;12.30;94.70;;;;;;2052930;28;20559;-83
2020/12/22 00:44:16;;;;;;;5.90;5.13;;;12.30;94.90;;;;;;2041122;29;20051;-82
2020/12/22 00:45:18;;;;;;;6.50;5.75;;;12.30;94.70;;;;;;2033372;29;20028;-82
2020/12/22 00:46:19;;;;;;;5.82;5.22;;;12.30;94.70;;;;;;2041538;29;20126;-82
2020/12/22 00:47:20;;;;;;;7.07;5.90;;;12.30;94.70;;;;;;2041286;29;20063;-82
2020/12/22 00:48:21;;;;;;;6.28;5.63;;;12.30;94.70;;;;;;2057408;28;20121;-82
2020/12/22 00:49:21;;;;;;;6.05;5.45;;;12.30;94.70;;;;;;2049241;28;20031;-82
2020/12/22 00:50:22;;;;;;;6.15;5.50;;;12.30;94.70;;;;;;2057392;28;20034;-82
2020/12/22 00:51:23;;;;;;;6.38;5.57;;;12.30;94.70;;;;;;2055798;28;20449;-82
2020/12/22 00:52:24;;;;;;;6.10;5.50;;;12.40;94.70;;;;;;2057268;28;20029;-82
2020/12/22 00:53:25;;;;;;;5.82;5.10;;;12.40;94.70;;;;;;2057272;28;20023;-82
2020/12/22 00:54:26;;;;;;;5.72;5.10;;;12.40;94.70;;;;;;2049230;28;20497;-82
2020/12/22 00:55:26;;;;;;;6.05;5.25;;;12.40;94.70;;;;;;2045303;29;20031;-80
2020/12/22 00:56:27;;;;;;;5.75;5.15;;;12.40;94.70;;;;;;2049642;28;20114;-80
2020/12/22 00:57:27;;;;;;;5.60;4.95;;;12.40;94.70;;;;;;2049239;28;20035;-80
2020/12/22 00:58:28;;;;;;;5.70;5.03;;;12.40;94.70;;;;;;2043796;28;20042;-80
2020/12/22 00:59:28;;;;;;;5.93;5.22;;;12.40;94.70;;;;;;2056719;28;20105;-80
2020/12/22 01:00:29;;;;;;;5.28;4.75;;;12.40;94.70;;;;;;2054185;28;20035;-80
2020/12/22 01:01:30;;;;;;;5.43;4.78;;;12.40;94.70;;;;;;2045017;29;20115;-80
2020/12/22 01:02:31;;;;;;;5.50;4.82;;;12.40;94.70;;;;;;2050926;28;20054;-80
2020/12/22 01:03:32;;;;;;;5.75;4.40;;;12.40;94.70;;;;;;2049181;29;20039;-80
2020/12/22 01:04:33;;;;;;;5.78;4.88;;;12.40;94.70;;;;;;2041645;29;21048;-80
2020/12/22 01:05:33;;;;;;;5.38;4.43;;;12.40;94.70;;;;;;2045975;29;20035;-80
2020/12/22 01:06:38;;;;;;;5.60;4.63;;;12.40;94.70;;;;;;2033448;29;20024;-80
2020/12/22 01:07:39;;;;;;;5.82;4.60;;;12.50;94.70;;;;;;2033904;29;20131;-80
2020/12/22 01:08:40;;;;;;;5.05;4.53;;;12.50;94.70;;;;;;2049199;28;20378;-80
2020/12/22 01:09:40;;;;;;;5.00;4.28;;;12.50;94.70;;;;;;2057229;28;20090;-80
2020/12/22 01:10:41;;;;;;;6.15;4.10;;;12.50;94.70;;;;;;2048830;28;20023;-79
2020/12/22 01:11:41;;;;;;;5.20;4.40;;;12.50;94.70;;;;;;2048325;29;20067;-79
2020/12/22 01:12:43;;;;;;;5.05;3.92;;;12.50;94.70;;;;;;2049070;28;20090;-80
2020/12/22 01:13:44;;;;;;;4.90;4.20;;;12.50;95.00;;;;;;2049368;28;20089;-80
2020/12/22 01:14:44;;;;;;;4.63;3.97;;;12.50;94.70;;;;;;2032996;29;20067;-80
2020/12/22 01:15:45;;;;;;;4.60;3.83;;;12.50;94.70;;;;;;2040518;29;20083;-80
2020/12/22 01:16:46;;;;;;;4.55;3.88;;;12.50;94.70;;;;;;2049234;28;20450;-80
2020/12/22 01:17:47;;;;;;;4.45;3.70;;;12.50;94.70;;;;;;2049136;28;20106;-79
2020/12/22 01:18:49;;;;;;;4.40;3.75;;;12.50;94.70;;;;;;2048924;28;20046;-80
2020/12/22 01:19:49;;;;;;;5.07;4.10;;;12.50;94.80;;;;;;2049102;28;20039;-80
2020/12/22 01:20:50;;;;;;;4.28;3.55;;;12.50;94.70;;;;;;2041452;28;20023;-80
2020/12/22 01:21:54;;;;;;;4.68;3.97;;;12.50;94.70;;;;;;2047495;28;20035;-80
2020/12/22 01:22:55;;;;;;;4.45;3.70;;;12.50;94.70;;;;;;2041884;29;20036;-80
2020/12/22 01:23:56;;;;;;;4.10;3.53;;;12.60;94.70;;;;;;2057530;28;20454;-80
2020/12/22 01:24:56;;;;;;;4.28;3.72;;;12.60;94.70;;;;;;2057136;28;20042;-80
2020/12/22 01:25:57;;;;;;;4.72;3.85;;;12.60;94.70;;;;;;2040648;29;20063;-80
2020/12/22 01:26:57;;;;;;;5.05;3.63;;;12.60;94.70;;;;;;2040689;29;20406;-80
2020/12/22 01:27:58;;;;;;;4.57;3.90;;;12.60;94.70;;;;;;2049001;28;20031;-80
2020/12/22 01:28:59;;;;;;;4.68;3.90;;;12.60;94.70;;;;;;2045101;28;20143;-80
2020/12/22 01:30:00;;;;;;;4.30;3.58;;;12.60;94.70;;;;;;2045173;29;20059;-80
2020/12/22 01:31:00;;;;;;;4.43;3.38;;;12.60;94.70;;;;;;2051336;28;20166;-80
2020/12/22 01:32:01;;;;;;;4.57;3.80;;;12.60;94.70;;;;;;2041223;29;20506;-80
2020/12/22 01:33:02;;;;;;;4.70;3.75;;;12.60;94.70;;;;;;2048061;28;20413;-81
2020/12/22 01:34:03;;;;;;;3.70;3.05;;;12.60;94.70;;;;;;2054943;28;20030;-80
2020/12/22 01:35:04;;;;;;;3.70;3.15;;;12.60;94.70;;;;;;2056767;28;20133;-80
2020/12/22 01:36:05;;;;;;;3.80;3.08;;;12.60;94.70;;;;;;2048878;29;20066;-80
2020/12/22 01:37:11;;;;;;;3.30;2.85;;;12.70;94.70;;;;;;2032883;29;20048;-80
2020/12/22 01:38:12;;;;;;;3.80;2.95;;;12.70;94.70;;;;;;2038039;28;20027;-80
2020/12/22 01:39:12;;;;;;;3.58;3.08;;;12.70;94.70;;;;;;2049224;28;20126;-81
2020/12/22 01:40:13;;;;;;;3.72;3.13;;;12.70;94.70;;;;;;2047497;28;20388;-80
2020/12/22 01:41:15;;;;;;;3.88;3.15;;;12.60;94.70;;;;;;2051410;28;20032;-80
2020/12/22 01:42:15;;;;;;;4.55;2.88;;;12.70;94.70;;;;;;2060043;28;20785;-80
2020/12/22 01:43:16;;;;;;;3.45;2.83;;;12.70;94.70;;;;;;2062100;28;20019;-80
2020/12/22 01:44:17;;;;;;;3.45;2.88;;;12.70;94.70;;;;;;2060054;28;20019;-79
2020/12/22 01:45:18;;;;;;;2.97;2.42;;;12.70;94.70;;;;;;2067390;28;20018;-80
2020/12/22 01:46:19;;;;;;;3.05;2.60;;;12.70;94.70;;;;;;2058358;28;20043;-80
2020/12/22 01:47:21;;;;;;;3.05;2.40;;;12.70;94.70;;;;;;2059144;28;20062;-79
2020/12/22 01:48:23;;;;;;;3.03;2.60;;;12.70;94.70;;;;;;2067131;28;20015;-80
2020/12/22 01:49:25;;;;;;;3.65;2.80;;;12.70;94.80;;;;;;2066845;28;20003;-80
2020/12/22 01:50:25;;;;;;;3.17;2.58;;;12.70;94.80;;;;;;2065937;28;20031;-80
2020/12/22 01:51:29;;;;;;;3.63;2.75;;;12.70;94.80;;;;;;2056807;28;20019;-81
2020/12/22 01:52:29;;;;;;;2.70;2.35;;;12.70;94.80;;;;;;2057848;28;20397;-80
2020/12/22 01:53:30;;;;;;;2.95;2.63;;;12.70;94.80;;;;;;2058112;28;20055;-80
2020/12/22 01:54:31;;;;;;;3.60;2.50;;;12.70;94.80;;;;;;2060376;28;20109;-79
2020/12/22 01:55:31;;;;;;;2.80;2.33;;;12.70;94.80;;;;;;2059812;28;20011;-79
2020/12/22 01:56:35;;;;;;;2.80;2.40;;;12.70;94.80;;;;;;2058924;28;20047;-80
2020/12/22 01:57:35;;;;;;;2.72;2.25;;;12.70;94.80;;;;;;2059957;28;20015;-80
2020/12/22 01:58:36;;;;;;;2.88;2.40;;;12.70;94.80;;;;;;2058869;28;20015;-80
2020/12/22 01:59:38;;;;;;;3.42;2.30;;;12.70;94.80;;;;;;2051529;28;20042;-80
2020/12/22 02:00:38;;;;;;;2.38;2.13;;;12.70;94.80;;;;;;2040920;29;20051;-79
2020/12/22 02:01:39;;;;;;;2.85;2.30;;;12.70;94.80;;;;;;2056765;28;20046;-80
2020/12/22 02:02:40;;;;;;;2.53;2.20;;;12.70;94.80;;;;;;2057394;28;20022;-79
2020/12/22 02:03:41;;;;;;;2.35;2.03;;;12.70;94.80;;;;;;2057075;28;20089;-80
2020/12/22 02:04:42;;;;;;;2.78;2.10;;;12.70;94.80;;;;;;2048620;28;20043;-80
2020/12/22 02:05:43;;;;;;;2.30;2.10;;;12.80;94.90;;;;;;2048615;28;20046;-80
2020/12/22 02:06:43;;;;;;;2.22;2.03;;;12.80;94.90;;;;;;2045240;28;20417;-80
2020/12/22 02:07:44;;;;;;;2.80;2.35;;;12.80;94.90;;;;;;2041145;29;20421;-80
2020/12/22 02:08:45;;;;;;;2.08;1.85;;;12.80;94.90;;;;;;2048985;28;20564;-80
2020/12/22 02:09:49;;;;;;;2.00;1.70;;;12.80;94.90;;;;;;2043792;29;20545;-79
2020/12/22 02:10:50;;;;;;;2.10;1.80;;;12.80;94.90;;;;;;2049363;28;20039;-79
2020/12/22 02:11:51;;;;;;;1.67;1.52;;;12.80;94.90;;;;;;2049159;28;20097;-79
2020/12/22 02:12:52;;;;;;;1.85;1.65;;;12.80;94.90;;;;;;2056414;28;20035;-80
2020/12/22 02:13:54;;;;;;;2.13;1.70;;;12.80;94.90;;;;;;2049331;28;20035;-80
2020/12/22 02:14:54;;;;;;;1.52;1.42;;;12.80;94.90;;;;;;2041026;29;20483;-79
2020/12/22 02:15:55;;;;;;;1.90;1.70;;;12.80;94.90;;;;;;2055490;28;20035;-80
2020/12/22 02:16:56;;;;;;;2.03;1.63;;;12.80;94.90;;;;;;2059853;28;20026;-78
2020/12/22 02:17:56;;;;;;;1.95;1.73;;;12.80;94.90;;;;;;2063923;28;20043;-80
2020/12/22 02:18:57;;;;;;;2.08;1.70;;;12.80;94.90;;;;;;2059432;28;20079;-81
2020/12/22 02:19:58;;;;;;;1.65;1.50;;;12.80;94.90;;;;;;2059539;28;20016;-81
2020/12/22 02:21:02;;;;;;;1.70;1.45;;;12.80;94.90;;;;;;2064425;28;20107;-81
2020/12/22 02:22:04;;;;;;;1.75;1.30;;;12.80;94.90;;;;;;2056690;28;20027;-81
2020/12/22 02:23:04;;;;;;;1.50;1.40;;;12.80;94.90;;;;;;2056872;28;20023;-81
2020/12/22 02:24:05;;;;;;;1.65;1.40;;;12.80;94.90;;;;;;2056987;28;20031;-81
2020/12/22 02:25:17;;;;;;;1.83;1.30;;;12.80;94.90;;;;;;2057007;28;20010;-81
2020/12/22 02:26:22;;;;;;;1.50;1.20;;;12.80;94.90;;;;;;2056498;28;20023;-81
2020/12/22 02:27:23;;;;;;;1.73;1.30;;;12.80;95.10;;;;;;2056719;28;20465;-81
2020/12/22 02:28:23;;;;;;;1.65;1.50;;;12.80;94.90;;;;;;2056516;28;20035;-81
2020/12/22 02:29:24;;;;;;;1.75;1.60;;;12.80;94.90;;;;;;2034744;29;20514;-81
2020/12/22 02:30:24;;;;;;;1.45;1.30;;;12.80;94.90;;;;;;2047632;28;20089;-81
2020/12/22 02:31:26;;;;;;;1.75;1.50;;;12.80;94.90;;;;;;2040699;29;20036;-82
2020/12/22 02:32:26;;;;;;;1.85;1.65;;;12.80;94.90;;;;;;2040951;28;20051;-81
2020/12/22 02:33:28;;;;;;;1.60;1.50;;;12.80;94.90;;;;;;2053809;28;20109;-81
2020/12/22 02:34:28;;;;;;;1.98;1.67;;;12.80;94.90;;;;;;2048483;28;20043;-81
2020/12/22 02:35:29;;;;;;;1.90;1.60;;;12.80;94.90;;;;;;2042224;29;20131;-81
2020/12/22 02:36:32;;;;;;;2.75;1.83;;;12.80;94.90;;;;;;2040455;29;20015;-81
2020/12/22 02:37:32;;;;;;;1.70;1.50;;;12.80;94.90;;;;;;2040213;29;20082;-82
2020/12/22 02:38:33;;;;;;;2.05;1.70;;;12.80;94.90;;;;;;2035106;29;20023;-81
2020/12/22 02:39:33;;;;;;;1.90;1.70;;;12.80;94.90;;;;;;2054287;28;20116;-81
2020/12/22 02:40:34;;;;;;;2.10;1.90;;;12.80;94.90;;;;;;2064136;28;20022;-81
2020/12/22 02:41:35;;;;;;;2.20;1.90;;;12.90;94.90;;;;;;2058496;28;20485;-80
2020/12/22 02:42:35;;;;;;;2.67;2.00;;;12.90;94.90;;;;;;2044325;28;20039;-81
2020/12/22 02:43:36;;;;;;;2.55;1.90;;;12.80;94.90;;;;;;2044134;29;20032;-81
2020/12/22 02:44:37;;;;;;;2.38;2.08;;;12.80;94.90;;;;;;2044255;28;20020;-81
2020/12/22 02:45:38;;;;;;;3.35;2.50;;;12.90;95.00;;;;;;2046733;29;20051;-81
2020/12/22 02:46:39;;;;;;;2.53;2.20;;;12.80;95.00;;;;;;2056337;28;20553;-82
2020/12/22 02:47:40;;;;;;;2.42;2.10;;;12.90;95.00;;;;;;2056161;28;20031;-81
2020/12/22 02:48:40;;;;;;;2.35;2.08;;;12.90;95.00;;;;;;2048152;28;20051;-81
2020/12/22 02:49:42;;;;;;;3.03;2.08;;;12.80;94.90;;;;;;2038524;29;20105;-80
2020/12/22 02:50:43;;;;;;;2.40;2.20;;;12.90;95.00;;;;;;2054831;28;20462;-81
2020/12/22 02:51:43;;;;;;;2.42;2.17;;;12.90;95.00;;;;;;2047614;28;20106;-81
2020/12/22 02:52:44;;;;;;;2.53;2.10;;;12.90;95.00;;;;;;2039878;29;20034;-81
2020/12/22 02:53:45;;;;;;;2.33;2.13;;;12.90;95.00;;;;;;2047532;29;20496;-81
2020/12/22 02:54:45;;;;;;;2.55;2.20;;;12.90;95.00;;;;;;2046030;28;20036;-81
2020/12/22 02:55:46;;;;;;;2.67;2.30;;;12.90;95.00;;;;;;2041628;29;20103;-81
2020/12/22 02:56:47;;;;;;;2.63;2.08;;;12.90;95.00;;;;;;2047929;29;20073;-81
2020/12/22 02:57:47;;;;;;;3.90;2.58;;;12.90;95.00;;;;;;2036537;29;20044;-81
2020/12/22 02:58:51;;;;;;;2.50;2.20;;;12.80;95.00;;;;;;2032043;29;20039;-81
2020/12/22 02:59:51;;;;;;;2.90;2.30;;;12.90;95.00;;;;;;2046783;28;20027;-81
2020/12/22 03:00:52;;;;;;;2.78;2.45;;;12.90;95.00;;;;;;2053688;28;20458;-81
2020/12/22 03:01:53;;;;;;;2.80;2.30;;;12.90;95.00;;;;;;2048142;29;20035;-81
2020/12/22 03:02:53;;;;;;;2.47;2.28;;;12.90;95.00;;;;;;2042611;29;20032;-81
2020/12/22 03:03:54;;;;;;;2.90;2.47;;;12.80;95.00;;;;;;2048864;28;20023;-81
2020/12/22 03:04:55;;;;;;;3.28;2.38;;;12.80;95.00;;;;;;2048104;28;20059;-81
2020/12/22 03:05:55;;;;;;;2.33;2.10;;;12.90;95.00;;;;;;2039716;29;20039;-81
2020/12/22 03:06:56;;;;;;;2.78;2.30;;;12.90;95.00;;;;;;2048374;28;20031;-81
2020/12/22 03:07:57;;;;;;;2.72;2.33;;;12.90;95.00;;;;;;2048216;28;20031;-81
2020/12/22 03:08:57;;;;;;;2.88;2.58;;;12.90;95.00;;;;;;2051676;28;20374;-81
2020/12/22 03:09:58;;;;;;;3.00;2.40;;;12.90;95.00;;;;;;2047321;28;20126;-81
2020/12/22 03:10:58;;;;;;;2.50;2.30;;;12.90;95.00;;;;;;2055126;28;20027;-81
2020/12/22 03:11:59;;;;;;;2.47;2.28;;;12.90;95.00;;;;;;2051622;28;20042;-81
2020/12/22 03:13:00;;;;;;;2.75;2.28;;;12.90;95.00;;;;;;2056756;28;20534;-81
2020/12/22 03:14:01;;;;;;;2.42;2.22;;;12.80;95.00;;;;;;2052665;28;20031;-81
2020/12/22 03:15:04;;;;;;;2.50;2.28;;;12.90;95.10;;;;;;2048115;29;20046;-81
2020/12/22 03:16:04;;;;;;;2.75;2.50;;;12.80;95.00;;;;;;2055107;28;20027;-81
2020/12/22 03:17:05;;;;;;;2.67;2.30;;;12.90;95.10;;;;;;2048553;28;20039;-81
2020/12/22 03:18:06;;;;;;;2.60;2.40;;;12.90;95.00;;;;;;2055888;28;20119;-81
2020/12/22 03:19:06;;;;;;;2.90;2.60;;;12.90;95.10;;;;;;2056209;28;20054;-81
2020/12/22 03:20:10;;;;;;;2.78;2.40;;;12.90;95.10;;;;;;2053860;28;20026;-81
2020/12/22 03:21:10;;;;;;;2.70;2.33;;;12.90;95.10;;;;;;2056177;28;20113;-81
2020/12/22 03:22:11;;;;;;;2.72;2.50;;;12.90;95.10;;;;;;2056836;28;20038;-81
2020/12/22 03:23:12;;;;;;;2.63;2.35;;;12.90;95.10;;;;;;2056182;28;20501;-81
2020/12/22 03:24:13;;;;;;;2.42;2.22;;;12.90;95.10;;;;;;2047790;28;20075;-81
2020/12/22 03:25:13;;;;;;;3.63;2.50;;;12.90;95.10;;;;;;2048109;28;20027;-81
2020/12/22 03:26:14;;;;;;;2.53;2.25;;;12.90;95.10;;;;;;2040057;29;20036;-81
2020/12/22 03:27:14;;;;;;;2.38;2.17;;;12.80;95.10;;;;;;2040241;29;20599;-81
2020/12/22 03:28:15;;;;;;;2.58;2.22;;;12.90;95.10;;;;;;2053506;28;20095;-81
2020/12/22 03:29:16;;;;;;;3.40;2.20;;;12.90;95.10;;;;;;2055279;28;20046;-80
2020/12/22 03:30:16;;;;;;;2.53;2.00;;;12.90;95.10;;;;;;2048722;28;20031;-81
2020/12/22 03:31:17;;;;;;;2.55;2.00;;;12.90;95.10;;;;;;2047642;29;20038;-81
2020/12/22 03:32:18;;;;;;;2.42;1.90;;;12.80;95.10;;;;;;2047708;28;20039;-81
2020/12/22 03:33:18;;;;;;;2.30;2.00;;;12.90;95.10;;;;;;2056078;28;20039;-81
2020/12/22 03:34:19;;;;;;;2.35;1.95;;;12.90;95.10;;;;;;2039638;29;20036;-81
2020/12/22 03:35:20;;;;;;;2.15;1.90;;;12.90;95.10;;;;;;2018870;29;622591;-81
2020/12/22 03:36:20;;;;;;;2.00;1.80;;;12.90;95.10;;;;;;2038284;29;20035;-81
2020/12/22 03:37:21;;;;;;;2.08;1.88;;;12.90;95.10;;;;;;2032604;29;20123;-81
2020/12/22 03:38:22;;;;;;;2.03;1.75;;;12.80;95.10;;;;;;2032537;29;20032;-81
2020/12/22 03:39:22;;;;;;;1.75;1.50;;;12.90;95.10;;;;;;2053743;28;20047;-81
2020/12/22 03:40:23;;;;;;;2.58;1.65;;;12.90;95.10;;;;;;2047393;29;20031;-82
2020/12/22 03:41:23;;;;;;;2.30;1.70;;;12.80;95.10;;;;;;2040436;29;20114;-82
2020/12/22 03:42:24;;;;;;;1.80;1.40;;;12.90;95.10;;;;;;2031855;29;20036;-81
2020/12/22 03:43:25;;;;;;;1.60;1.50;;;12.80;95.10;;;;;;2032657;29;20063;-81
2020/12/22 03:44:26;;;;;;;1.85;1.50;;;12.80;95.10;;;;;;2051345;28;20031;-81
2020/12/22 03:45:26;;;;;;;1.50;1.40;;;12.90;95.10;;;;;;2048813;28;20531;-81
2020/12/22 03:46:27;;;;;;;1.45;1.30;;;12.80;95.10;;;;;;2045923;29;20027;-82
2020/12/22 03:47:28;;;;;;;1.85;1.30;;;12.80;95.10;;;;;;2055537;28;20110;-82
2020/12/22 03:48:29;;;;;;;1.83;1.48;;;12.80;95.10;;;;;;2047956;28;20059;-82
2020/12/22 03:49:29;;;;;;;1.92;1.67;;;12.80;95.10;;;;;;2046815;29;20034;-81
2020/12/22 03:50:30;;;;;;;3.03;1.40;;;12.80;95.10;;;;;;2040496;29;20039;-81
2020/12/22 03:51:31;;;;;;;1.70;1.38;;;12.80;95.10;;;;;;2032493;29;20068;-81
2020/12/22 03:52:31;;;;;;;2.55;1.40;;;12.80;95.10;;;;;;2048528;28;20039;-81
2020/12/22 03:53:32;;;;;;;1.35;1.08;;;12.80;95.10;;;;;;2047601;29;20470;-81
2020/12/22 03:54:33;;;;;;;1.45;1.25;;;12.80;95.10;;;;;;2040027;29;20035;-81
2020/12/22 03:55:34;;;;;;;2.05;1.33;;;12.80;95.10;;;;;;2040488;29;20039;-81
2020/12/22 03:56:35;;;;;;;1.27;1.10;;;12.80;95.10;;;;;;2039962;29;20447;-81
2020/12/22 03:57:35;;;;;;;1.55;1.30;;;12.80;95.10;;;;;;2040438;29;20044;-81
2020/12/22 03:58:36;;;;;;;1.48;1.10;;;12.80;95.10;;;;;;2048290;28;20075;-81
2020/12/22 03:59:37;;;;;;;1.60;1.10;;;12.80;95.10;;;;;;2049405;28;20039;-81
2020/12/22 04:00:37;;;;;;;0.82;0.82;;;12.80;95.10;;;;;;2046712;28;20079;-81
2020/12/22 04:01:38;;;;;;;1.75;1.10;;;12.80;95.10;;;;;;2039890;29;20535;-81
2020/12/22 04:02:38;;;;;;;1.25;1.10;;;12.80;95.10;;;;;;2040480;29;20478;-81
2020/12/22 04:03:39;;;;;;;1.33;1.10;;;12.80;95.20;;;;;;2047625;28;20031;-81
2020/12/22 04:04:40;;;;;;;2.03;1.23;;;12.70;95.10;;;;;;2047940;28;20035;-81
2020/12/22 04:05:41;;;;;;;1.20;0.95;;;12.80;95.40;;;;;;2047945;28;20038;-81
2020/12/22 04:06:41;;;;;;;1.63;1.10;;;12.80;95.20;;;;;;2056244;28;20480;-82
2020/12/22 04:07:42;;;;;;;1.00;0.90;;;12.80;95.20;;;;;;2053770;28;20049;-81
2020/12/22 04:08:42;;;;;;;1.70;1.30;;;12.80;95.20;;;;;;2048022;28;20066;-81
2020/12/22 04:09:43;;;;;;;1.27;1.17;;;12.80;95.20;;;;;;2039207;29;20028;-81
2020/12/22 04:10:44;;;;;;;1.50;1.30;;;12.70;95.20;;;;;;2050145;28;20547;-81
2020/12/22 04:11:45;;;;;;;2.45;1.50;;;12.70;95.20;;;;;;2048064;29;20493;-81
2020/12/22 04:12:46;;;;;;;1.80;1.30;;;12.70;95.20;;;;;;2040531;28;20032;-81
2020/12/22 04:13:47;;;;;;;1.90;1.42;;;12.70;95.20;;;;;;2056263;28;20121;-81
2020/12/22 04:14:48;;;;;;;2.00;1.35;;;12.70;95.20;;;;;;2056466;28;20046;-81
2020/12/22 04:15:48;;;;;;;3.15;1.60;;;12.70;95.20;;;;;;2041113;29;20478;-81
2020/12/22 04:16:49;;;;;;;1.98;1.33;;;12.70;95.20;;;;;;2040849;29;20043;-82
2020/12/22 04:17:50;;;;;;;1.75;1.50;;;12.70;95.20;;;;;;2057512;28;20484;-81
2020/12/22 04:18:50;;;;;;;1.70;1.50;;;12.70;95.20;;;;;;2041794;29;20545;-81
2020/12/22 04:19:51;;;;;;;2.05;1.50;;;12.70;95.20;;;;;;2038697;29;20074;-80
2020/12/22 04:20:52;;;;;;;2.72;1.60;;;12.70;95.20;;;;;;2049295;29;20488;-81
2020/12/22 04:21:52;;;;;;;1.90;1.40;;;12.70;95.20;;;;;;2041134;29;20066;-81
2020/12/22 04:22:53;;;;;;;1.80;1.40;;;12.70;95.20;;;;;;2041680;29;20083;-81
2020/12/22 04:23:54;;;;;;;2.75;1.52;;;12.70;95.20;;;;;;2041708;29;20478;-81
2020/12/22 04:24:54;;;;;;;1.77;1.30;;;12.70;95.20;;;;;;2046979;28;20075;-81
2020/12/22 04:25:55;;;;;;;1.75;1.30;;;12.70;95.20;;;;;;2048162;28;20063;-81
2020/12/22 04:26:56;;;;;;;1.92;1.20;;;12.70;95.20;;;;;;2057555;28;20034;-81
2020/12/22 04:27:56;;;;;;;1.65;1.10;;;12.70;95.20;;;;;;2054454;28;20040;-81
2020/12/22 04:28:57;;;;;;;2.83;1.40;;;12.70;95.20;;;;;;2050496;28;20055;-81
2020/12/22 04:29:58;;;;;;;1.88;1.10;;;12.70;95.20;;;;;;2064719;28;20045;-81
2020/12/22 04:30:58;;;;;;;1.13;0.95;;;12.70;95.20;;;;;;2065499;28;20440;-81
2020/12/22 04:31:59;;;;;;;1.27;1.00;;;12.70;95.20;;;;;;2049489;28;20485;-82
2020/12/22 04:32:59;;;;;;;1.15;0.95;;;12.70;95.20;;;;;;2033767;29;20044;-81
2020/12/22 04:34:00;;;;;;;2.20;1.00;;;12.70;95.50;;;;;;2033780;29;20403;-81
2020/12/22 04:35:01;;;;;;;1.30;0.90;;;12.70;95.20;;;;;;2047692;29;20055;-81
2020/12/22 04:36:02;;;;;;;1.23;0.88;;;12.70;95.20;;;;;;2051326;28;20118;-81
2020/12/22 04:37:03;;;;;;;1.23;0.90;;;12.70;95.20;;;;;;2052497;28;20073;-81
2020/12/22 04:38:04;;;;;;;1.58;1.02;;;12.70;95.20;;;;;;2049443;28;20023;-81
2020/12/22 04:39:05;;;;;;;1.77;1.10;;;12.70;95.20;;;;;;2040264;28;20114;-81
2020/12/22 04:40:06;;;;;;;1.77;1.00;;;12.70;95.20;;;;;;2048184;29;20027;-81
2020/12/22 04:41:12;;;;;;;1.67;1.13;;;12.70;95.20;;;;;;2041629;29;20035;-82
2020/12/22 04:42:13;;;;;;;2.10;1.20;;;12.70;95.20;;;;;;2049209;28;20031;-81
2020/12/22 04:43:15;;;;;;;1.58;0.90;;;12.70;95.20;;;;;;2049537;28;20051;-81
2020/12/22 04:44:16;;;;;;;1.10;1.00;;;12.70;95.20;;;;;;2047443;28;20083;-81
2020/12/22 04:45:17;;;;;;;1.92;1.08;;;12.60;95.20;;;;;;2057552;28;20111;-81
2020/12/22 04:46:22;;;;;;;1.55;1.00;;;12.60;95.20;;;;;;2048524;28;20031;-81
2020/12/22 04:47:26;;;;;;;2.13;1.10;;;12.70;95.20;;;;;;2048717;29;20398;-81
2020/12/22 04:48:39;;;;;;;3.63;1.20;;;12.70;95.30;;;;;;2049456;29;20032;-81
2020/12/22 04:49:42;;;;;;;1.80;1.20;;;12.70;95.30;;;;;;2049631;28;20023;-81
2020/12/22 04:50:44;;;;;;;1.70;1.40;;;12.70;95.30;;;;;;2054612;28;20093;-81
2020/12/22 04:51:49;;;;;;;1.85;1.40;;;12.60;95.20;;;;;;2046556;29;20082;-81
2020/12/22 04:52:51;;;;;;;2.00;1.40;;;12.70;95.30;;;;;;2042299;29;20058;-81
2020/12/22 04:53:52;;;;;;;2.05;1.63;;;12.70;95.30;;;;;;2050893;28;20023;-81
2020/12/22 04:54:53;;;;;;;2.35;1.65;;;12.70;95.30;;;;;;2056054;28;20038;-81
2020/12/22 04:55:54;;;;;;;2.03;1.60;;;12.60;95.20;;;;;;2049089;29;20035;-81
2020/12/22 04:56:56;;;;;;;2.90;1.90;;;12.60;95.20;;;;;;2048530;28;20382;-81
2020/12/22 04:57:57;;;;;;;2.13;1.80;;;12.60;95.20;;;;;;2050773;28;20097;-81
2020/12/22 04:58:58;;;;;;;3.17;1.70;;;12.70;95.20;;;;;;2033209;29;20553;-81
2020/12/22 05:00:01;;;;;;;3.40;2.13;;;12.70;95.30;;;;;;2043139;29;20494;-81
2020/12/22 05:01:02;;;;;;;2.38;1.85;;;12.70;95.20;;;;;;2057932;28;20022;-81
2020/12/22 05:02:03;;;;;;;2.25;1.92;;;12.70;95.20;;;;;;2058136;28;20031;-81
2020/12/22 05:03:05;;;;;;;3.28;2.10;;;12.60;95.20;;;;;;2049101;28;20038;-81
2020/12/22 05:04:05;;;;;;;3.72;2.30;;;12.60;95.20;;;;;;2049395;28;20027;-81
2020/12/22 05:05:06;;;;;;;3.33;2.35;;;12.70;95.20;;;;;;2048893;28;20061;-81
2020/12/22 05:06:07;;;;;;;3.13;2.30;;;12.60;95.20;;;;;;2047977;29;20039;-81
2020/12/22 05:07:07;;;;;;;2.58;1.92;;;12.60;95.20;;;;;;2048312;29;20031;-81
2020/12/22 05:08:08;;;;;;;3.70;2.03;;;12.60;95.20;;;;;;2047593;28;20437;-81
2020/12/22 05:09:09;;;;;;;3.40;2.20;;;12.60;95.20;;;;;;2049269;28;20470;-81
2020/12/22 05:10:11;;;;;;;2.42;1.85;;;12.70;95.20;;;;;;2048134;29;20039;-81
2020/12/22 05:11:16;;;;;;;2.50;1.90;;;12.60;95.20;;;;;;2038501;29;20056;-81
2020/12/22 05:12:17;;;;;;;2.42;1.80;;;12.60;95.20;;;;;;2049288;29;20445;-81
2020/12/22 05:13:19;;;;;;;3.70;1.70;;;12.60;95.20;;;;;;2049451;28;20066;-81
2020/12/22 05:14:20;;;;;;;2.33;1.40;;;12.60;95.20;;;;;;2053348;28;20022;-80
2020/12/22 05:15:20;;;;;;;2.80;1.80;;;12.60;95.20;;;;;;2056332;28;20039;-80
2020/12/22 05:16:27;;;;;;;2.15;1.63;;;12.60;95.20;;;;;;2049103;28;20588;-80
2020/12/22 05:17:27;;;;;;;2.40;1.58;;;12.60;95.20;;;;;;2050156;28;20621;-81
2020/12/22 05:18:28;;;;;;;2.58;1.50;;;12.60;95.50;;;;;;2054598;28;20078;-81